createdAt,value
2019-03-17T00:00:59.673Z,6.30
2019-03-17T00:03:28.982Z,6.30
2019-03-17T00:05:58.312Z,6.30
2019-03-17T00:08:27.741Z,6.20
2019-03-17T00:10:57.040Z,6.20
2019-03-17T00:13:26.412Z,6.20
2019-03-17T00:15:55.738Z,6.20
2019-03-17T00:18:25.099Z,6.20
2019-03-17T00:20:54.448Z,6.20
2019-03-17T00:23:23.864Z,6.20
2019-03-17T00:25:53.254Z,6.10
2019-03-17T00:28:22.589Z,6.10
2019-03-17T00:30:51.903Z,6.10
2019-03-17T00:33:21.327Z,6.00
2019-03-17T00:35:50.789Z,6.00
2019-03-17T00:38:20.105Z,5.90
2019-03-17T00:40:49.466Z,5.90
2019-03-17T00:43:18.813Z,5.80
2019-03-17T00:45:48.225Z,5.80
2019-03-17T00:48:17.553Z,5.70
2019-03-17T00:50:48.997Z,5.60
2019-03-17T00:53:17.902Z,5.60
2019-03-17T00:55:47.292Z,5.50
2019-03-17T00:58:16.611Z,5.50
2019-03-17T01:00:45.939Z,5.50
2019-03-17T01:03:15.314Z,5.40
2019-03-17T01:05:44.631Z,5.30
2019-03-17T01:08:14.027Z,5.30
2019-03-17T01:10:43.436Z,5.30
2019-03-17T01:13:12.799Z,5.20
2019-03-17T01:15:42.126Z,5.20
2019-03-17T01:18:11.422Z,5.10
2019-03-17T01:20:40.776Z,5.00
2019-03-17T01:23:10.143Z,5.00
2019-03-17T01:25:39.507Z,5.00
2019-03-17T01:28:08.848Z,5.10
2019-03-17T01:30:38.210Z,5.10
2019-03-17T01:33:07.640Z,5.10
2019-03-17T01:35:37.056Z,5.10
2019-03-17T01:38:06.372Z,5.10
2019-03-17T01:40:35.721Z,5.10
2019-03-17T01:43:05.114Z,5.10
2019-03-17T01:45:34.470Z,5.10
2019-03-17T01:48:03.796Z,5.00
2019-03-17T01:50:33.294Z,5.00
2019-03-17T01:53:02.683Z,5.00
2019-03-17T01:55:32.080Z,4.90
2019-03-17T01:58:03.529Z,4.90
2019-03-17T02:00:32.880Z,4.80
2019-03-17T02:03:02.307Z,4.70
2019-03-17T02:05:31.718Z,4.70
2019-03-17T02:08:02.882Z,4.60
2019-03-17T02:10:32.210Z,4.60
2019-03-17T02:13:02.050Z,4.50
2019-03-17T02:15:31.372Z,4.50
2019-03-17T02:18:00.738Z,4.50
2019-03-17T02:20:30.130Z,4.50
2019-03-17T02:22:59.572Z,4.50
2019-03-17T02:25:28.916Z,4.40
2019-03-17T02:27:58.233Z,4.40
2019-03-17T02:30:27.584Z,4.30
2019-03-17T02:32:57.028Z,4.30
2019-03-17T02:35:38.660Z,4.20
2019-03-17T02:37:57.504Z,4.20
2019-03-17T02:43:02.290Z,4.10
2019-03-17T02:45:31.724Z,4.10
2019-03-17T02:48:01.095Z,4.10
2019-03-17T02:50:30.475Z,4.00
2019-03-17T02:52:59.799Z,4.00
2019-03-17T02:55:29.205Z,4.10
2019-03-17T02:57:58.561Z,4.00
2019-03-17T03:00:27.947Z,4.00
2019-03-17T03:02:57.379Z,4.00
2019-03-17T03:05:26.682Z,4.00
2019-03-17T03:07:56.101Z,4.00
2019-03-17T03:10:25.483Z,3.90
2019-03-17T03:12:54.831Z,3.90
2019-03-17T03:15:24.226Z,3.90
2019-03-17T03:17:53.668Z,3.90
2019-03-17T03:20:23.050Z,3.90
2019-03-17T03:22:52.957Z,3.90
2019-03-17T03:25:22.341Z,3.80
2019-03-17T03:27:51.742Z,3.80
2019-03-17T03:30:21.189Z,3.70
2019-03-17T03:32:50.634Z,3.80
2019-03-17T03:35:20.078Z,3.70
2019-03-17T03:37:49.454Z,3.70
2019-03-17T03:42:54.058Z,3.60
2019-03-17T03:45:23.477Z,3.50
2019-03-17T03:47:52.871Z,3.50
2019-03-17T03:50:22.245Z,3.50
2019-03-17T03:52:51.581Z,3.40
2019-03-17T03:55:21.037Z,3.40
2019-03-17T03:57:50.427Z,3.40
2019-03-17T04:00:19.808Z,3.30
2019-03-17T04:02:49.279Z,3.30
2019-03-17T04:05:18.653Z,3.30
2019-03-17T04:07:48.078Z,3.20
2019-03-17T04:10:17.379Z,3.20
2019-03-17T04:12:46.745Z,3.20
2019-03-17T04:15:16.087Z,3.10
2019-03-17T04:17:45.418Z,3.10
2019-03-17T04:20:14.861Z,3.00
2019-03-17T04:22:44.224Z,3.00
2019-03-17T04:25:16.715Z,3.00
2019-03-17T04:27:46.098Z,2.90
2019-03-17T04:30:15.936Z,2.90
2019-03-17T04:32:45.358Z,2.90
2019-03-17T04:35:14.714Z,2.90
2019-03-17T04:37:44.017Z,2.90
2019-03-17T04:40:13.391Z,2.90
2019-03-17T04:42:42.723Z,2.90
2019-03-17T04:45:12.161Z,2.90
2019-03-17T04:47:41.456Z,2.90
2019-03-17T04:50:10.842Z,2.90
2019-03-17T04:52:40.160Z,2.90
2019-03-17T04:55:09.591Z,2.80
2019-03-17T04:57:38.947Z,2.70
2019-03-17T05:00:08.540Z,2.70
2019-03-17T05:02:37.905Z,2.70
2019-03-17T05:05:07.531Z,2.70
2019-03-17T05:07:36.985Z,2.70
2019-03-17T05:10:06.646Z,2.70
2019-03-17T05:12:36.020Z,2.70
2019-03-17T05:15:05.787Z,2.60
2019-03-17T05:17:35.158Z,2.60
2019-03-17T05:20:04.905Z,2.60
2019-03-17T05:22:34.215Z,2.60
2019-03-17T05:25:03.626Z,2.60
2019-03-17T05:27:33.012Z,2.60
2019-03-17T05:30:08.168Z,2.60
2019-03-17T05:32:37.611Z,2.60
2019-03-17T05:35:07.196Z,2.60
2019-03-17T05:37:36.524Z,2.60
2019-03-17T05:40:06.165Z,2.70
2019-03-17T05:42:40.323Z,2.70
2019-03-17T05:45:06.582Z,2.70
2019-03-17T05:47:35.877Z,2.70
2019-03-17T05:50:05.991Z,2.70
2019-03-17T05:52:35.342Z,2.70
2019-03-17T05:55:04.840Z,2.70
2019-03-17T05:57:34.235Z,2.80
2019-03-17T06:00:03.625Z,2.80
2019-03-17T06:02:32.985Z,2.80
2019-03-17T06:05:02.315Z,2.80
2019-03-17T06:07:31.710Z,2.90
2019-03-17T06:10:01.046Z,2.90
2019-03-17T06:12:30.413Z,2.90
2019-03-17T06:14:59.799Z,3.00
2019-03-17T06:17:29.114Z,3.00
2019-03-17T06:19:58.456Z,3.10
2019-03-17T06:22:27.867Z,3.20
2019-03-17T06:24:57.230Z,3.30
2019-03-17T06:27:26.529Z,3.50
2019-03-17T06:29:55.868Z,3.70
2019-03-17T06:32:25.187Z,3.80
2019-03-17T06:34:54.598Z,4.00
2019-03-17T06:37:30.864Z,4.00
2019-03-17T06:39:54.978Z,4.10
2019-03-17T06:42:24.314Z,4.20
2019-03-17T06:44:53.668Z,4.40
2019-03-17T06:47:23.061Z,4.50
2019-03-17T06:49:52.427Z,4.60
2019-03-17T06:52:21.828Z,4.70
2019-03-17T06:54:51.236Z,5.00
2019-03-17T06:57:20.546Z,5.20
2019-03-17T06:59:49.984Z,5.40
2019-03-17T07:02:19.334Z,5.50
2019-03-17T07:04:48.764Z,5.60
2019-03-17T07:07:18.096Z,5.70
2019-03-17T07:09:47.454Z,5.80
2019-03-17T07:12:16.850Z,5.90
2019-03-17T07:14:46.233Z,6.00
2019-03-17T07:17:15.632Z,6.10
2019-03-17T07:19:45.027Z,6.30
2019-03-17T07:22:14.405Z,6.40
2019-03-17T07:24:43.777Z,6.50
2019-03-17T07:27:13.148Z,6.60
2019-03-17T07:29:42.499Z,6.70
2019-03-17T07:32:11.873Z,6.80
2019-03-17T07:34:41.319Z,7.00
2019-03-17T07:37:10.694Z,7.10
2019-03-17T07:39:40.071Z,7.20
2019-03-17T07:42:09.501Z,7.30
2019-03-17T07:44:38.841Z,7.40
2019-03-17T07:47:08.282Z,7.50
2019-03-17T07:49:37.668Z,7.70
2019-03-17T07:52:07.034Z,7.80
2019-03-17T07:54:36.456Z,7.90
2019-03-17T07:57:05.903Z,7.90
2019-03-17T07:59:35.279Z,8.00
2019-03-17T08:02:04.694Z,8.10
2019-03-17T08:04:42.405Z,8.20
2019-03-17T08:07:05.139Z,8.30
2019-03-17T08:09:34.461Z,8.40
2019-03-17T08:12:03.839Z,8.60
2019-03-17T08:14:33.136Z,8.80
2019-03-17T08:17:02.505Z,8.90
2019-03-17T08:19:31.844Z,9.00
2019-03-17T08:22:02.283Z,9.20
2019-03-17T08:24:31.604Z,9.30
2019-03-17T08:27:02.329Z,9.50
2019-03-17T08:29:31.635Z,9.70
2019-03-17T08:32:01.947Z,9.90
2019-03-17T08:34:31.297Z,10.10
2019-03-17T08:37:03.831Z,10.20
2019-03-17T08:39:33.171Z,10.30
2019-03-17T08:42:02.608Z,10.40
2019-03-17T08:44:31.933Z,10.50
2019-03-17T08:47:02.355Z,10.60
2019-03-17T08:49:31.757Z,10.80
2019-03-17T08:52:02.238Z,11.00
2019-03-17T08:54:31.560Z,11.10
2019-03-17T08:57:02.427Z,11.30
2019-03-17T08:59:31.750Z,11.50
2019-03-17T09:02:02.356Z,11.70
2019-03-17T09:04:31.749Z,11.80
2019-03-17T09:07:02.504Z,12.00
2019-03-17T09:09:31.929Z,12.20
2019-03-17T09:12:02.338Z,12.30
2019-03-17T09:14:31.735Z,12.50
2019-03-17T09:17:13.703Z,12.60
2019-03-17T09:19:33.440Z,12.60
2019-03-17T09:22:02.877Z,12.70
2019-03-17T09:24:32.194Z,12.80
2019-03-17T09:27:02.430Z,12.90
2019-03-17T09:29:31.761Z,12.90
2019-03-17T09:32:02.431Z,13.10
2019-03-17T09:34:31.877Z,13.10
2019-03-17T09:37:02.893Z,13.20
2019-03-17T09:39:32.223Z,13.30
2019-03-17T09:42:02.427Z,13.30
2019-03-17T09:44:31.761Z,13.40
2019-03-17T09:47:02.375Z,13.50
2019-03-17T09:49:31.771Z,13.60
2019-03-17T09:52:02.405Z,13.50
2019-03-17T09:54:31.765Z,13.50
2019-03-17T09:57:02.439Z,13.50
2019-03-17T09:59:31.829Z,13.60
2019-03-17T10:02:02.465Z,13.70
2019-03-17T10:04:31.782Z,13.80
2019-03-17T10:07:03.729Z,14.00
2019-03-17T10:09:33.078Z,14.00
2019-03-17T10:12:04.337Z,14.10
2019-03-17T10:14:33.656Z,14.20
2019-03-17T10:17:03.047Z,14.30
2019-03-17T10:19:32.432Z,14.30
2019-03-17T10:22:03.421Z,14.50
2019-03-17T10:24:32.765Z,14.60
2019-03-17T10:27:03.059Z,14.70
2019-03-17T10:29:32.428Z,14.90
2019-03-17T10:32:02.831Z,15.00
2019-03-17T10:34:33.422Z,15.20
2019-03-17T10:37:02.915Z,15.30
2019-03-17T10:39:34.649Z,15.50
2019-03-17T10:42:04.055Z,15.60
2019-03-17T10:44:33.529Z,15.70
2019-03-17T10:47:02.923Z,15.70
2019-03-17T10:49:32.313Z,15.90
2019-03-17T10:52:02.812Z,16.00
2019-03-17T10:54:32.214Z,16.10
2019-03-17T10:57:02.818Z,16.30
2019-03-17T10:59:32.127Z,16.40
2019-03-17T11:02:03.299Z,16.40
2019-03-17T11:04:33.567Z,16.50
2019-03-17T11:07:07.754Z,16.60
2019-03-17T11:09:37.094Z,16.80
2019-03-17T11:12:06.497Z,17.00
2019-03-17T11:14:35.813Z,17.10
2019-03-17T11:17:06.157Z,17.10
2019-03-17T11:19:36.457Z,17.30
2019-03-17T11:22:05.888Z,17.50
2019-03-17T11:24:35.306Z,17.50
2019-03-17T11:27:04.661Z,17.60
2019-03-17T11:29:34.001Z,17.60
2019-03-17T11:32:06.336Z,17.70
2019-03-17T11:34:34.509Z,17.70
2019-03-17T11:37:03.953Z,17.80
2019-03-17T11:39:37.932Z,18.20
2019-03-17T11:42:04.454Z,18.30
2019-03-17T11:44:33.839Z,18.50
2019-03-17T11:47:03.217Z,18.60
2019-03-17T11:49:32.617Z,18.60
2019-03-17T11:52:02.917Z,18.60
2019-03-17T11:54:32.259Z,18.80
2019-03-17T11:57:07.892Z,18.90
2019-03-17T11:59:37.245Z,19.10
2019-03-17T12:02:06.709Z,19.20
2019-03-17T12:04:36.136Z,19.40
2019-03-17T12:07:05.561Z,19.50
2019-03-17T12:09:34.917Z,19.50
2019-03-17T12:12:04.378Z,19.50
2019-03-17T12:14:33.681Z,19.70
2019-03-17T12:17:03.419Z,19.80
2019-03-17T12:19:32.981Z,19.90
2019-03-17T12:22:08.922Z,19.90
2019-03-17T12:24:34.487Z,20.00
2019-03-17T12:27:03.846Z,20.10
2019-03-17T12:29:33.243Z,20.30
2019-03-17T12:32:02.633Z,20.30
2019-03-17T12:34:32.009Z,20.40
2019-03-17T12:37:01.363Z,20.50
2019-03-17T12:39:30.713Z,20.50
2019-03-17T12:42:00.100Z,20.60
2019-03-17T12:44:29.464Z,20.70
2019-03-17T12:46:58.849Z,20.70
2019-03-17T12:49:28.215Z,20.60
2019-03-17T12:51:57.553Z,20.70
2019-03-17T12:54:26.925Z,20.80
2019-03-17T12:56:56.335Z,20.90
2019-03-17T12:59:29.109Z,20.80
2019-03-17T13:01:58.475Z,20.90
2019-03-17T13:04:27.937Z,21.00
2019-03-17T13:06:57.299Z,21.00
2019-03-17T13:09:26.797Z,20.90
2019-03-17T13:11:56.203Z,21.00
2019-03-17T13:14:25.611Z,21.10
2019-03-17T13:16:55.011Z,21.20
2019-03-17T13:19:24.474Z,21.30
2019-03-17T13:21:53.897Z,21.40
2019-03-17T13:24:23.343Z,21.50
2019-03-17T13:26:52.691Z,21.50
2019-03-17T13:29:22.157Z,21.50
2019-03-17T13:31:51.568Z,21.60
2019-03-17T13:34:21.488Z,21.80
2019-03-17T13:36:50.903Z,21.90
2019-03-17T13:39:20.358Z,22.00
2019-03-17T13:41:49.799Z,22.10
2019-03-17T13:44:19.188Z,22.20
2019-03-17T13:46:48.624Z,22.30
2019-03-17T13:49:18.048Z,22.30
2019-03-17T13:51:47.419Z,22.30
2019-03-17T13:54:16.759Z,22.40
2019-03-17T13:56:46.154Z,22.50
2019-03-17T13:59:15.535Z,22.50
2019-03-17T14:01:44.926Z,22.50
2019-03-17T14:04:14.283Z,22.40
2019-03-17T14:06:43.671Z,22.50
2019-03-17T14:09:13.085Z,22.60
2019-03-17T14:11:42.486Z,22.50
2019-03-17T14:14:11.856Z,22.60
2019-03-17T14:16:41.328Z,22.70
2019-03-17T14:19:10.762Z,22.60
2019-03-17T14:21:40.103Z,22.60
2019-03-17T14:24:09.471Z,22.60
2019-03-17T14:26:38.807Z,22.50
2019-03-17T14:29:08.189Z,22.50
2019-03-17T14:31:37.527Z,22.40
2019-03-17T14:34:06.984Z,22.40
2019-03-17T14:36:36.399Z,22.40
2019-03-17T14:39:07.207Z,22.30
2019-03-17T14:41:36.570Z,22.30
2019-03-17T14:44:05.974Z,22.40
2019-03-17T14:46:35.816Z,22.40
2019-03-17T14:49:05.388Z,22.40
2019-03-17T14:51:34.852Z,22.30
2019-03-17T14:54:04.386Z,22.30
2019-03-17T14:56:33.722Z,22.30
2019-03-17T14:59:03.132Z,22.30
2019-03-17T15:01:32.517Z,22.30
2019-03-17T15:04:02.809Z,22.30
2019-03-17T15:06:32.444Z,22.20
2019-03-17T15:09:03.459Z,22.20
2019-03-17T15:11:32.813Z,22.20
2019-03-17T15:14:02.275Z,22.20
2019-03-17T15:16:31.618Z,22.20
2019-03-17T15:19:03.335Z,22.20
2019-03-17T15:21:32.808Z,22.20
2019-03-17T15:24:02.782Z,22.20
2019-03-17T15:26:32.206Z,22.10
2019-03-17T15:29:01.844Z,22.10
2019-03-17T15:31:31.232Z,22.00
2019-03-17T15:34:00.727Z,22.00
2019-03-17T15:36:30.151Z,22.10
2019-03-17T15:38:59.541Z,22.00
2019-03-17T15:41:28.844Z,21.90
2019-03-17T15:43:58.202Z,21.80
2019-03-17T15:46:27.545Z,21.60
2019-03-17T15:48:56.903Z,21.50
2019-03-17T15:51:26.202Z,21.50
2019-03-17T15:53:55.637Z,21.40
2019-03-17T15:56:25.041Z,21.30
2019-03-17T15:58:54.453Z,21.20
2019-03-17T16:01:23.777Z,21.10
2019-03-17T16:03:53.192Z,20.90
2019-03-17T16:06:22.591Z,20.80
2019-03-17T16:11:31.137Z,20.50
2019-03-17T16:13:57.989Z,20.40
2019-03-17T16:16:27.437Z,20.30
2019-03-17T16:18:56.811Z,20.20
2019-03-17T16:21:26.127Z,20.10
2019-03-17T16:23:55.578Z,20.00
2019-03-17T16:26:24.965Z,19.90
2019-03-17T16:28:54.361Z,19.70
2019-03-17T16:31:23.697Z,19.60
2019-03-17T16:33:53.269Z,19.50
2019-03-17T16:36:22.651Z,19.50
2019-03-17T16:38:51.999Z,19.40
2019-03-17T16:41:21.377Z,19.30
2019-03-17T16:43:50.705Z,19.20
2019-03-17T16:46:20.150Z,19.20
2019-03-17T16:48:49.565Z,19.20
2019-03-17T16:51:18.929Z,19.00
2019-03-17T16:53:48.247Z,19.00
2019-03-17T16:56:17.641Z,18.80
2019-03-17T16:58:47.208Z,18.70
2019-03-17T17:01:16.642Z,18.60
2019-03-17T17:03:46.106Z,18.60
2019-03-17T17:06:19.906Z,18.50
2019-03-17T17:08:49.255Z,18.40
2019-03-17T17:11:18.606Z,18.30
2019-03-17T17:13:48.083Z,18.10
2019-03-17T17:16:17.537Z,18.00
2019-03-17T17:18:47.073Z,18.00
2019-03-17T17:21:16.717Z,17.90
2019-03-17T17:23:46.102Z,17.80
2019-03-17T17:26:15.473Z,17.70
2019-03-17T17:28:44.956Z,17.60
2019-03-17T17:31:14.390Z,17.50
2019-03-17T17:33:43.847Z,17.30
2019-03-17T17:36:13.326Z,17.30
2019-03-17T17:38:42.825Z,17.10
2019-03-17T17:41:12.385Z,17.00
2019-03-17T17:43:41.782Z,16.90
2019-03-17T17:46:11.283Z,16.90
2019-03-17T17:48:40.681Z,16.80
2019-03-17T17:51:10.141Z,16.70
2019-03-17T17:53:39.482Z,16.60
2019-03-17T17:56:08.851Z,16.50
2019-03-17T17:58:38.281Z,16.40
2019-03-17T18:01:07.669Z,16.30
2019-03-17T18:03:37.066Z,16.20
2019-03-17T18:06:06.457Z,16.20
2019-03-17T18:08:35.908Z,16.10
2019-03-17T18:11:05.651Z,16.10
2019-03-17T18:13:35.084Z,16.00
2019-03-17T18:16:04.554Z,15.90
2019-03-17T18:18:34.278Z,15.90
2019-03-17T18:21:03.661Z,15.90
2019-03-17T18:23:33.325Z,15.70
2019-03-17T18:26:02.661Z,15.70
2019-03-17T18:28:32.022Z,15.70
2019-03-17T18:31:01.341Z,15.60
2019-03-17T18:33:30.713Z,15.60
2019-03-17T18:36:00.048Z,15.60
2019-03-17T18:38:29.511Z,15.50
2019-03-17T18:40:58.935Z,15.40
2019-03-17T18:43:28.345Z,15.50
2019-03-17T18:45:57.721Z,15.40
2019-03-17T18:48:27.193Z,15.30
2019-03-17T18:50:56.526Z,15.20
2019-03-17T18:53:25.903Z,15.20
2019-03-17T18:55:55.255Z,15.20
2019-03-17T18:58:24.757Z,15.10
2019-03-17T19:00:54.132Z,15.10
2019-03-17T19:03:23.491Z,15.00
2019-03-17T19:05:52.915Z,15.00
2019-03-17T19:08:22.395Z,14.90
2019-03-17T19:10:51.797Z,14.80
2019-03-17T19:13:21.148Z,14.80
2019-03-17T19:15:50.479Z,14.70
2019-03-17T19:18:19.926Z,14.60
2019-03-17T19:20:49.375Z,14.50
2019-03-17T19:23:18.789Z,14.50
2019-03-17T19:25:48.132Z,14.40
2019-03-17T19:28:17.487Z,14.40
2019-03-17T19:30:46.797Z,14.30
2019-03-17T19:33:16.177Z,14.20
2019-03-17T19:35:45.565Z,14.20
2019-03-17T19:38:14.977Z,14.10
2019-03-17T19:40:44.338Z,14.00
2019-03-17T19:43:13.835Z,13.90
2019-03-17T19:45:43.237Z,13.80
2019-03-17T19:48:13.596Z,13.80
2019-03-17T19:50:43.015Z,13.80
2019-03-17T19:53:12.510Z,13.70
2019-03-17T19:55:41.898Z,13.70
2019-03-17T19:58:11.291Z,13.60
2019-03-17T20:00:40.801Z,13.60
2019-03-17T20:03:10.276Z,13.50
2019-03-17T20:05:39.670Z,13.50
2019-03-17T20:08:09.037Z,13.40
2019-03-17T20:10:38.441Z,13.40
2019-03-17T20:13:11.909Z,13.30
2019-03-17T20:15:38.852Z,13.30
2019-03-17T20:18:08.247Z,13.20
2019-03-17T20:20:37.771Z,13.20
2019-03-17T20:23:07.241Z,13.10
2019-03-17T20:25:36.629Z,13.10
2019-03-17T20:28:06.033Z,13.10
2019-03-17T20:30:35.418Z,13.00
2019-03-17T20:33:06.310Z,13.00
2019-03-17T20:35:35.786Z,12.90
2019-03-17T20:38:05.197Z,12.90
2019-03-17T20:40:34.514Z,12.80
2019-03-17T20:43:03.907Z,12.70
2019-03-17T20:45:33.362Z,12.60
2019-03-17T20:48:02.781Z,12.60
2019-03-17T20:50:32.153Z,12.60
2019-03-17T20:53:03.070Z,12.50
2019-03-17T20:55:32.442Z,12.50
2019-03-17T20:58:03.219Z,12.50
2019-03-17T21:00:32.618Z,12.50
2019-03-17T21:03:03.471Z,12.50
2019-03-17T21:05:32.920Z,12.60
2019-03-17T21:08:02.374Z,12.60
2019-03-17T21:10:31.850Z,12.60
2019-03-17T21:13:01.206Z,12.70
2019-03-17T21:15:30.610Z,12.60
2019-03-17T21:18:00.010Z,12.70
2019-03-17T21:20:29.508Z,12.70
2019-03-17T21:22:58.968Z,12.80
2019-03-17T21:25:28.388Z,13.00
2019-03-17T21:27:57.768Z,13.10
2019-03-17T21:30:27.336Z,13.10
2019-03-17T21:32:56.737Z,13.20
2019-03-17T21:35:26.150Z,13.30
2019-03-17T21:37:55.585Z,13.30
2019-03-17T21:40:25.050Z,13.40
2019-03-17T21:42:54.584Z,13.40
2019-03-17T21:45:24.058Z,13.40
2019-03-17T21:47:53.472Z,13.40
2019-03-17T21:50:22.925Z,13.40
2019-03-17T21:52:52.492Z,13.40
2019-03-17T21:55:21.929Z,13.40
2019-03-17T21:57:51.247Z,13.40
2019-03-17T22:00:20.689Z,13.40
2019-03-17T22:02:50.023Z,13.30
2019-03-17T22:05:19.454Z,13.30
2019-03-17T22:07:50.878Z,13.30
2019-03-17T22:10:20.006Z,13.40
2019-03-17T22:12:49.455Z,13.50
2019-03-17T22:15:19.012Z,13.60
2019-03-17T22:17:48.418Z,13.50
2019-03-17T22:20:17.920Z,13.20
2019-03-17T22:22:47.350Z,13.00
2019-03-17T22:25:17.822Z,12.80
2019-03-17T22:27:47.155Z,12.60
2019-03-17T22:30:16.601Z,12.50
2019-03-17T22:32:45.957Z,12.30
2019-03-17T22:35:15.494Z,12.10
2019-03-17T22:37:44.914Z,12.00
2019-03-17T22:40:14.394Z,11.80
2019-03-17T22:42:43.867Z,11.70
2019-03-17T22:45:13.431Z,11.50
2019-03-17T22:47:42.974Z,11.40
2019-03-17T22:50:13.066Z,11.40
2019-03-17T22:52:42.458Z,11.30
2019-03-17T22:55:12.521Z,11.20
2019-03-17T22:57:41.972Z,11.10
2019-03-17T23:00:14.248Z,11.00
2019-03-17T23:02:43.656Z,10.90
2019-03-17T23:05:14.922Z,10.90
2019-03-17T23:07:44.260Z,10.80
2019-03-17T23:10:13.927Z,10.80
2019-03-17T23:12:43.262Z,10.70
2019-03-17T23:15:12.791Z,10.70
2019-03-17T23:17:42.234Z,10.60
2019-03-17T23:20:11.908Z,10.50
2019-03-17T23:22:41.275Z,10.50
2019-03-17T23:25:10.755Z,10.40
2019-03-17T23:27:40.116Z,10.30
2019-03-17T23:30:10.538Z,10.20
2019-03-17T23:32:39.973Z,10.20
2019-03-17T23:35:09.387Z,10.10
2019-03-17T23:37:38.878Z,10.10
2019-03-17T23:40:09.664Z,10.00
2019-03-17T23:42:41.987Z,9.90
2019-03-17T23:45:11.910Z,9.90
2019-03-17T23:47:41.290Z,9.80
2019-03-17T23:50:10.654Z,9.70
2019-03-17T23:52:40.002Z,9.70
2019-03-17T23:55:11.168Z,9.60
2019-03-17T23:57:40.601Z,9.50
